createdAt,value
2023-04-18T00:01:40.078Z,22.57
2023-04-18T00:04:44.018Z,22.35
2023-04-18T00:07:48.294Z,22.01
2023-04-18T00:10:51.551Z,21.93
2023-04-18T00:13:54.805Z,22.03
2023-04-18T00:16:58.148Z,21.97
2023-04-18T00:20:01.520Z,21.89
2023-04-18T00:23:04.882Z,21.60
2023-04-18T00:26:08.181Z,21.17
2023-04-18T00:29:11.665Z,21.10
2023-04-18T00:32:15.497Z,21.17
2023-04-18T00:35:20.285Z,20.87
2023-04-18T00:38:23.649Z,20.76
2023-04-18T00:41:27.377Z,20.77
2023-04-18T00:44:32.067Z,20.42
2023-04-18T00:47:37.596Z,19.65
2023-04-18T00:50:41.751Z,19.73
2023-04-18T00:53:45.489Z,19.94
2023-04-18T00:56:52.234Z,19.80
2023-04-18T00:59:55.108Z,19.65
2023-04-18T01:02:58.493Z,19.67
2023-04-18T01:06:01.810Z,19.54
2023-04-18T01:09:05.105Z,19.28
2023-04-18T01:12:08.449Z,19.33
2023-04-18T01:15:11.844Z,19.33
2023-04-18T01:18:16.012Z,19.19
2023-04-18T01:21:19.332Z,18.70
2023-04-18T01:24:22.514Z,18.72
2023-04-18T01:27:28.077Z,18.65
2023-04-18T01:30:31.496Z,18.48
2023-04-18T01:33:37.691Z,18.23
2023-04-18T01:36:41.857Z,18.11
2023-04-18T01:39:45.452Z,18.22
2023-04-18T01:42:48.605Z,18.29
2023-04-18T01:45:51.860Z,18.29
2023-04-18T01:48:55.553Z,18.28
2023-04-18T01:51:58.794Z,17.90
2023-04-18T01:55:02.155Z,17.75
2023-04-18T01:58:05.567Z,17.72
2023-04-18T02:01:08.908Z,17.85
2023-04-18T02:04:12.615Z,17.72
2023-04-18T02:07:16.096Z,17.66
2023-04-18T02:10:20.126Z,17.76
2023-04-18T02:13:26.261Z,17.59
2023-04-18T02:16:29.646Z,17.21
2023-04-18T02:19:33.012Z,17.10
2023-04-18T02:22:39.536Z,17.18
2023-04-18T02:25:42.764Z,17.23
2023-04-18T02:28:46.001Z,17.16
2023-04-18T02:31:49.238Z,17.00
2023-04-18T02:34:52.616Z,16.83
2023-04-18T02:37:56.027Z,16.99
2023-04-18T02:40:59.278Z,16.95
2023-04-18T02:44:02.561Z,16.87
2023-04-18T02:47:06.163Z,16.72
2023-04-18T02:50:09.721Z,16.88
2023-04-18T02:53:13.054Z,16.79
2023-04-18T02:56:16.985Z,16.61
2023-04-18T02:59:22.593Z,16.66
2023-04-18T03:02:26.028Z,16.54
2023-04-18T03:05:29.419Z,16.18
2023-04-18T03:08:32.502Z,16.48
2023-04-18T03:11:35.898Z,16.30
2023-04-18T03:14:39.102Z,16.43
2023-04-18T03:17:44.694Z,16.51
2023-04-18T03:20:47.897Z,16.56
2023-04-18T03:23:51.078Z,16.43
2023-04-18T03:26:56.546Z,16.20
2023-04-18T03:29:59.779Z,15.92
2023-04-18T03:33:03.072Z,15.64
2023-04-18T03:36:06.804Z,15.95
2023-04-18T03:39:09.984Z,16.22
2023-04-18T03:42:13.736Z,16.11
2023-04-18T03:45:16.988Z,16.25
2023-04-18T03:48:20.201Z,16.22
2023-04-18T03:51:23.379Z,16.07
2023-04-18T03:54:26.634Z,16.09
2023-04-18T03:57:30.123Z,15.98
2023-04-18T04:00:33.605Z,15.64
2023-04-18T04:03:37.102Z,15.82
2023-04-18T04:06:40.604Z,16.03
2023-04-18T04:09:43.892Z,16.03
2023-04-18T04:12:47.158Z,15.80
2023-04-18T04:15:50.375Z,15.50
2023-04-18T04:18:53.616Z,15.41
2023-04-18T04:21:56.804Z,15.21
2023-04-18T04:25:00.209Z,15.26
2023-04-18T04:28:03.410Z,15.32
2023-04-18T04:31:06.611Z,15.38
2023-04-18T04:34:09.904Z,15.49
2023-04-18T04:37:15.279Z,15.48
2023-04-18T04:40:18.528Z,15.29
2023-04-18T04:43:21.804Z,15.30
2023-04-18T04:46:25.068Z,15.45
2023-04-18T04:49:28.424Z,15.11
2023-04-18T04:52:31.670Z,15.18
2023-04-18T04:55:35.449Z,15.10
2023-04-18T04:58:38.599Z,14.83
2023-04-18T05:01:44.390Z,15.10
2023-04-18T05:04:47.626Z,14.81
2023-04-18T05:07:50.864Z,14.77
2023-04-18T05:10:56.198Z,14.65
2023-04-18T05:14:01.721Z,14.71
2023-04-18T05:17:05.076Z,14.32
2023-04-18T05:20:09.301Z,14.49
2023-04-18T05:23:13.266Z,14.74
2023-04-18T05:26:16.529Z,14.82
2023-04-18T05:29:19.768Z,14.41
2023-04-18T05:32:23.679Z,14.58
2023-04-18T05:35:26.974Z,14.37
2023-04-18T05:38:30.288Z,14.00
2023-04-18T05:41:33.554Z,13.95
2023-04-18T05:44:37.288Z,14.27
2023-04-18T05:47:40.550Z,14.10
2023-04-18T05:50:43.831Z,14.14
2023-04-18T05:53:47.206Z,14.05
2023-04-18T05:56:50.553Z,13.56
2023-04-18T05:59:53.762Z,13.57
2023-04-18T06:02:57.370Z,13.73
2023-04-18T06:06:03.133Z,13.98
2023-04-18T06:09:06.598Z,13.65
2023-04-18T06:12:09.959Z,13.25
2023-04-18T06:15:13.420Z,13.23
2023-04-18T06:18:16.689Z,13.09
2023-04-18T06:21:21.670Z,13.57
2023-04-18T06:24:24.961Z,13.67
2023-04-18T06:27:31.387Z,13.45
2023-04-18T06:30:35.164Z,13.02
2023-04-18T06:33:38.550Z,13.02
2023-04-18T06:36:41.766Z,13.35
2023-04-18T06:39:45.157Z,13.35
2023-04-18T06:42:50.866Z,13.42
2023-04-18T06:45:54.131Z,13.22
2023-04-18T06:48:57.355Z,13.45
2023-04-18T06:52:00.540Z,13.33
2023-04-18T06:55:03.804Z,13.14
2023-04-18T06:58:07.025Z,13.02
2023-04-18T07:01:10.457Z,13.28
2023-04-18T07:04:14.632Z,13.23
2023-04-18T07:07:18.153Z,13.14
2023-04-18T07:10:21.400Z,12.79
2023-04-18T07:13:24.684Z,13.03
2023-04-18T07:16:28.115Z,12.95
2023-04-18T07:19:31.292Z,13.02
2023-04-18T07:22:35.578Z,12.94
2023-04-18T07:25:39.115Z,12.82
2023-04-18T07:28:42.589Z,12.76
2023-04-18T07:31:49.313Z,12.90
2023-04-18T07:34:52.680Z,12.94
2023-04-18T07:37:55.778Z,12.58
2023-04-18T07:41:00.563Z,12.49
2023-04-18T07:44:03.910Z,12.81
2023-04-18T07:47:08.677Z,12.91
2023-04-18T07:50:12.209Z,12.83
2023-04-18T07:53:15.444Z,12.84
2023-04-18T07:56:18.605Z,12.94
2023-04-18T07:59:22.749Z,12.88
2023-04-18T08:02:26.597Z,12.64
2023-04-18T08:05:30.019Z,12.72
2023-04-18T08:08:33.542Z,12.60
2023-04-18T08:11:36.990Z,12.78
2023-04-18T08:14:40.105Z,12.37
2023-04-18T08:17:43.515Z,12.23
2023-04-18T08:20:46.711Z,12.22
2023-04-18T08:23:50.100Z,12.26
2023-04-18T08:26:55.925Z,12.28
2023-04-18T08:29:59.296Z,12.49
2023-04-18T08:33:02.552Z,12.34
2023-04-18T08:36:08.494Z,12.28
2023-04-18T08:39:12.007Z,12.30
2023-04-18T08:42:17.202Z,11.97
2023-04-18T08:45:20.978Z,11.94
2023-04-18T08:48:24.249Z,12.26
2023-04-18T08:51:31.100Z,12.42
2023-04-18T08:54:34.305Z,12.27
2023-04-18T08:57:37.454Z,12.42
2023-04-18T09:00:40.705Z,12.35
2023-04-18T09:03:45.280Z,12.08
2023-04-18T09:06:55.187Z,12.27
2023-04-18T09:09:58.943Z,12.12
2023-04-18T09:13:03.949Z,12.11
2023-04-18T09:16:07.566Z,12.16
2023-04-18T09:19:15.905Z,11.96
2023-04-18T09:22:19.324Z,12.21
2023-04-18T09:25:31.505Z,12.34
2023-04-18T09:28:34.663Z,12.39
2023-04-18T09:31:57.451Z,12.16
2023-04-18T09:35:04.815Z,12.06
2023-04-18T09:38:08.863Z,12.15
2023-04-18T09:41:12.980Z,12.26
2023-04-18T09:44:16.207Z,12.33
2023-04-18T09:47:19.549Z,11.97
2023-04-18T09:50:22.922Z,12.00
2023-04-18T09:53:26.312Z,11.99
2023-04-18T09:56:31.197Z,12.31
2023-04-18T09:59:42.544Z,12.39
2023-04-18T10:02:51.871Z,12.24
2023-04-18T10:05:57.892Z,12.32
2023-04-18T10:09:04.153Z,12.27
2023-04-18T10:12:07.483Z,11.83
2023-04-18T10:15:11.328Z,12.02
2023-04-18T10:18:17.793Z,11.87
2023-04-18T10:21:22.443Z,11.87
2023-04-18T10:24:47.263Z,12.08
2023-04-18T10:27:50.499Z,12.03
2023-04-18T10:30:58.305Z,11.85
2023-04-18T10:34:05.557Z,11.48
2023-04-18T10:37:09.370Z,11.45
2023-04-18T10:40:12.832Z,11.83
2023-04-18T10:43:16.033Z,11.91
2023-04-18T10:46:31.084Z,11.84
2023-04-18T10:49:38.831Z,11.62
2023-04-18T10:52:42.301Z,11.75
2023-04-18T10:55:46.858Z,11.67
2023-04-18T10:58:53.885Z,11.67
2023-04-18T11:02:00.741Z,11.79
2023-04-18T11:05:05.065Z,11.72
2023-04-18T11:08:24.661Z,11.90
2023-04-18T11:11:28.245Z,11.55
2023-04-18T11:14:45.648Z,11.51
2023-04-18T11:18:02.918Z,11.52
2023-04-18T11:21:06.536Z,11.47
2023-04-18T11:24:12.586Z,11.54
2023-04-18T11:27:15.969Z,11.58
2023-04-18T11:30:19.593Z,11.56
2023-04-18T11:33:23.014Z,11.65
2023-04-18T11:36:26.263Z,11.60
2023-04-18T11:39:30.026Z,11.79
2023-04-18T11:42:34.621Z,11.99
2023-04-18T11:45:38.095Z,11.92
2023-04-18T11:48:43.451Z,12.00
2023-04-18T11:51:46.757Z,12.01
2023-04-18T11:54:50.298Z,12.16
2023-04-18T11:57:54.642Z,12.36
2023-04-18T12:00:57.969Z,12.16
2023-04-18T12:04:11.620Z,12.06
2023-04-18T12:07:15.056Z,12.35
2023-04-18T12:10:21.291Z,12.69
2023-04-18T12:13:32.338Z,12.65
2023-04-18T12:16:36.039Z,13.03
2023-04-18T12:19:39.277Z,12.89
2023-04-18T12:22:44.353Z,13.07
2023-04-18T12:26:00.057Z,12.88
2023-04-18T12:29:03.399Z,12.93
2023-04-18T12:32:06.664Z,12.98
2023-04-18T12:35:10.326Z,12.99
2023-04-18T12:38:13.735Z,13.04
2023-04-18T12:41:17.051Z,13.22
2023-04-18T12:44:20.276Z,13.25
2023-04-18T12:47:23.527Z,13.29
2023-04-18T12:50:27.797Z,13.30
2023-04-18T12:53:32.911Z,13.69
2023-04-18T12:56:36.131Z,13.62
2023-04-18T12:59:39.283Z,13.60
2023-04-18T13:02:44.866Z,13.78
2023-04-18T13:05:48.164Z,13.97
2023-04-18T13:08:51.428Z,14.15
2023-04-18T13:11:54.583Z,14.35
2023-04-18T13:14:59.022Z,14.57
2023-04-18T13:18:03.294Z,14.49
2023-04-18T13:21:06.973Z,14.57
2023-04-18T13:24:10.190Z,14.63
2023-04-18T13:27:16.310Z,14.91
2023-04-18T13:30:19.554Z,15.24
2023-04-18T13:33:22.725Z,15.29
2023-04-18T13:36:26.033Z,15.18
2023-04-18T13:39:31.750Z,15.07
2023-04-18T13:42:36.357Z,15.04
2023-04-18T13:45:39.755Z,15.05
2023-04-18T13:48:45.422Z,14.98
2023-04-18T13:51:48.771Z,15.10
2023-04-18T13:54:52.196Z,14.95
2023-04-18T13:57:55.712Z,15.18
2023-04-18T14:00:59.142Z,15.62
2023-04-18T14:04:02.994Z,15.49
2023-04-18T14:07:07.046Z,15.53
2023-04-18T14:10:10.864Z,15.64
2023-04-18T14:13:14.100Z,15.38
2023-04-18T14:16:17.663Z,15.43
2023-04-18T14:19:20.859Z,15.21
2023-04-18T14:22:24.253Z,15.00
2023-04-18T14:25:29.989Z,14.45
2023-04-18T14:28:33.356Z,14.66
2023-04-18T14:31:36.702Z,15.28
2023-04-18T14:34:42.396Z,15.21
2023-04-18T14:37:48.004Z,15.17
2023-04-18T14:40:51.273Z,15.37
2023-04-18T14:43:54.794Z,15.05
2023-04-18T14:46:57.999Z,15.19
2023-04-18T14:50:01.259Z,15.55
2023-04-18T14:53:04.567Z,15.77
2023-04-18T14:56:08.137Z,15.73
2023-04-18T14:59:12.145Z,15.51
2023-04-18T15:02:16.855Z,15.81
2023-04-18T15:05:23.186Z,16.12
2023-04-18T15:08:26.359Z,15.84
2023-04-18T15:11:32.370Z,16.07
2023-04-18T15:14:35.544Z,15.79
2023-04-18T15:17:38.895Z,15.88
2023-04-18T15:20:42.109Z,16.59
2023-04-18T15:23:45.376Z,16.47
2023-04-18T15:26:48.931Z,16.34
2023-04-18T15:29:52.773Z,16.61
2023-04-18T15:32:56.180Z,16.73
2023-04-18T15:35:59.576Z,17.13
2023-04-18T15:39:03.119Z,16.77
2023-04-18T15:42:07.865Z,16.82
2023-04-18T15:45:11.746Z,17.02
2023-04-18T15:48:15.091Z,17.21
2023-04-18T15:51:18.323Z,17.31
2023-04-18T15:54:21.527Z,17.57
2023-04-18T15:57:24.877Z,17.89
2023-04-18T16:00:29.199Z,18.00
2023-04-18T16:03:32.547Z,18.67
2023-04-18T16:06:35.876Z,19.51
2023-04-18T16:09:39.128Z,19.88
2023-04-18T16:12:43.517Z,19.84
2023-04-18T16:15:46.764Z,19.66
2023-04-18T16:18:50.172Z,19.10
2023-04-18T16:21:53.557Z,18.65
2023-04-18T16:24:56.806Z,18.98
2023-04-18T16:28:00.080Z,18.68
2023-04-18T16:31:03.355Z,19.22
2023-04-18T16:34:06.522Z,19.42
2023-04-18T16:37:09.790Z,19.85
2023-04-18T16:40:13.175Z,19.80
2023-04-18T16:43:16.329Z,19.61
2023-04-18T16:46:19.580Z,19.30
2023-04-18T16:49:22.912Z,19.42
2023-04-18T16:52:28.444Z,19.20
2023-04-18T16:55:31.692Z,19.30
2023-04-18T16:58:34.866Z,19.82
2023-04-18T17:01:40.427Z,20.26
2023-04-18T17:04:43.585Z,20.00
2023-04-18T17:07:46.749Z,19.89
2023-04-18T17:10:53.730Z,20.15
2023-04-18T17:13:57.063Z,20.06
2023-04-18T17:17:00.323Z,19.84
2023-04-18T17:20:03.528Z,20.05
2023-04-18T17:23:06.814Z,20.04
2023-04-18T17:26:10.276Z,19.87
2023-04-18T17:29:13.596Z,20.30
2023-04-18T17:32:17.123Z,20.41
2023-04-18T17:35:20.685Z,20.55
2023-04-18T17:38:24.323Z,20.33
2023-04-18T17:41:28.025Z,20.57
2023-04-18T17:44:31.337Z,20.68
2023-04-18T17:47:35.032Z,20.98
2023-04-18T17:50:38.326Z,21.44
2023-04-18T17:53:41.476Z,20.59
2023-04-18T17:56:47.675Z,20.95
2023-04-18T17:59:52.882Z,21.30
2023-04-18T18:02:57.018Z,22.04
2023-04-18T18:06:00.304Z,22.57
2023-04-18T18:09:03.459Z,21.95
2023-04-18T18:12:06.946Z,22.28
2023-04-18T18:15:12.113Z,22.31
2023-04-18T18:18:15.329Z,23.11
2023-04-18T18:21:20.148Z,23.28
2023-04-18T18:24:23.279Z,23.62
2023-04-18T18:27:26.586Z,22.91
2023-04-18T18:30:30.259Z,23.00
2023-04-18T18:33:33.504Z,22.93
2023-04-18T18:36:36.761Z,22.01
2023-04-18T18:39:40.033Z,21.41
2023-04-18T18:42:43.244Z,21.19
2023-04-18T18:45:49.999Z,21.13
2023-04-18T18:48:52.786Z,21.00
2023-04-18T18:51:56.111Z,21.10
2023-04-18T18:54:59.260Z,21.17
2023-04-18T18:58:02.452Z,20.86
2023-04-18T19:01:05.589Z,21.20
2023-04-18T19:04:08.919Z,21.43
2023-04-18T19:07:14.601Z,21.39
2023-04-18T19:10:18.217Z,21.25
2023-04-18T19:13:22.780Z,21.21
2023-04-18T19:16:26.149Z,21.22
2023-04-18T19:19:29.331Z,21.22
2023-04-18T19:22:32.960Z,21.27
2023-04-18T19:25:36.171Z,21.44
2023-04-18T19:28:39.618Z,21.42
2023-04-18T19:31:42.836Z,21.82
2023-04-18T19:34:48.443Z,21.77
2023-04-18T19:37:53.891Z,21.62
2023-04-18T19:40:59.408Z,21.99
2023-04-18T19:44:02.693Z,22.32
2023-04-18T19:47:05.936Z,21.63
2023-04-18T19:50:09.669Z,21.83
2023-04-18T19:53:12.995Z,21.96
2023-04-18T19:56:16.271Z,22.06
2023-04-18T19:59:19.669Z,22.09
2023-04-18T20:02:23.109Z,22.04
2023-04-18T20:05:26.427Z,22.47
2023-04-18T20:08:29.732Z,22.45
2023-04-18T20:11:32.981Z,22.35
2023-04-18T20:14:36.216Z,22.47
2023-04-18T20:17:39.423Z,22.44
2023-04-18T20:20:42.695Z,22.42
2023-04-18T20:23:48.535Z,22.62
2023-04-18T20:26:54.262Z,22.20
2023-04-18T20:29:57.569Z,22.14
2023-04-18T20:33:00.796Z,22.27
2023-04-18T20:36:04.431Z,22.48
2023-04-18T20:39:08.514Z,22.36
2023-04-18T20:42:11.839Z,22.14
2023-04-18T20:45:15.041Z,22.19
2023-04-18T20:48:18.981Z,22.34
2023-04-18T20:51:22.069Z,22.24
2023-04-18T20:54:25.232Z,22.54
2023-04-18T20:57:29.705Z,22.43
2023-04-18T21:00:33.083Z,22.47
2023-04-18T21:03:36.484Z,22.69
2023-04-18T21:06:39.912Z,22.56
2023-04-18T21:09:43.092Z,22.90
2023-04-18T21:12:46.327Z,23.03
2023-04-18T21:15:49.487Z,22.46
2023-04-18T21:18:54.521Z,22.56
2023-04-18T21:21:57.734Z,22.30
2023-04-18T21:25:01.998Z,22.52
2023-04-18T21:28:07.440Z,22.55
2023-04-18T21:31:10.666Z,22.39
2023-04-18T21:34:14.165Z,21.99
2023-04-18T21:37:17.609Z,21.90
2023-04-18T21:40:20.924Z,22.23
2023-04-18T21:43:24.699Z,22.42
2023-04-18T21:46:27.900Z,22.35
2023-04-18T21:49:31.166Z,22.34
2023-04-18T21:52:34.416Z,22.75
2023-04-18T21:55:37.867Z,22.86
2023-04-18T21:58:41.031Z,22.80
2023-04-18T22:01:44.430Z,23.35
2023-04-18T22:04:48.493Z,23.20
2023-04-18T22:07:58.215Z,23.30
2023-04-18T22:11:02.082Z,22.92
2023-04-18T22:14:05.453Z,23.27
2023-04-18T22:17:08.761Z,23.29
2023-04-18T22:20:12.622Z,23.39
2023-04-18T22:23:17.766Z,23.33
2023-04-18T22:26:21.075Z,22.75
2023-04-18T22:29:24.208Z,22.61
2023-04-18T22:32:27.448Z,22.93
2023-04-18T22:35:30.721Z,22.59
2023-04-18T22:38:34.240Z,22.62
2023-04-18T22:41:37.425Z,22.29
2023-04-18T22:44:41.054Z,22.34
2023-04-18T22:47:44.335Z,22.51
2023-04-18T22:50:47.691Z,22.81
2023-04-18T22:53:50.992Z,22.69
2023-04-18T22:56:54.336Z,22.05
2023-04-18T23:00:01.935Z,22.17
2023-04-18T23:03:08.893Z,22.51
2023-04-18T23:06:12.259Z,22.37
2023-04-18T23:09:16.220Z,22.55
2023-04-18T23:12:21.376Z,22.60
2023-04-18T23:15:24.981Z,22.71
2023-04-18T23:18:30.285Z,22.31
2023-04-18T23:21:33.811Z,22.32
2023-04-18T23:24:36.987Z,22.12
2023-04-18T23:27:40.219Z,22.00
2023-04-18T23:30:43.311Z,21.83
2023-04-18T23:33:46.968Z,21.57
2023-04-18T23:36:50.263Z,21.38
2023-04-18T23:39:53.660Z,21.37
2023-04-18T23:42:56.971Z,21.18
2023-04-18T23:46:00.993Z,21.45
2023-04-18T23:49:04.330Z,21.43
2023-04-18T23:52:07.524Z,21.52
2023-04-18T23:55:10.862Z,21.25
2023-04-18T23:58:14.551Z,21.13
